Bondurant, IA (50035)

9:07 AM CST on January 20, 2017 (GMT -0600)
Altoona, Iowa (NE) | | Change Station
Active Advisory: Dense Fog Advisory

Elev 938 ft 41.64 °N, 93.45 °W | Updated 10 seconds ago

Overcast
Overcast
37.6 °F
Feels Like 38 °F
N
0.9
Wind Variable Wind from SW
Gusts 2.5 mph

Today
High -- | Low -- °F
--% Chance of Precip.
Yesterday
High -- | Low -- °F
Precip. -- in
Pressure 29.64 in
Visibility 4.0 miles
Clouds Overcast 300 ft
Windchill 38 °F
Dew Point 37 °F
Humidity 99%
Rainfall 0.00 in
Snow Depth Not available.
7:35 AM 5:14 PM
Last Quarter, 43% visible
METAR KIKV 201455Z AUTO 17007KT 4SM BR OVC003 03/03 A2964 RMK AO2
Pressure 29.64 in
Visibility 4.0 miles
Clouds Overcast 300 ft
Windchill 38 °F
Dew Point 37 °F
Humidity 99%
Rainfall 0.00 in
Snow Depth Not available.
7:35 AM 5:14 PM
Last Quarter, 43% visible
METAR KIKV 201455Z AUTO 17007KT 4SM BR OVC003 03/03 A2964 RMK AO2

Get Your Daily Forecast Email!

Thanks for signing up!

Be on the lookout for a verification email in your inbox.

You'll start receiving the daily forecast at 8 AM.

×

10-Day Weather Forecast

Almanac

Astronomy

Jan. 20, 2017 Rise Set
Actual Time
Civil Twilight
Nautical Twilight
Astronomical Twilight
Moon
Length of Visible Light
Length of Day
Tomorrow will be .
, % of the Moon is Illuminated

Today's Extremes

State Highs State Lows

Community

WunderPhotos

Upload Photos

1,962,540 photos uploaded!

WunderBlog® & News

Nearby

Air Quality

  Air Quality AQ Index Pollutant
Not available.

Snow Depth

Station Depth Elevation

Earthquake Activity

City Distance Mag. Time & Date
Minimum magnitude displayed is 2.5.

Coastal Water Temperatures

Place Temperature

Stations

Nearby Weather Stations

Station Location Temp. Windchill Dew Point Humidity Wind Precip. Elev Updated Type
                   

Watches & Warnings

Dense Fog Advisory
Issued: 3:36 AM CST Jan. 20, 2017 – National Weather Service

... Dense fog advisory remains in effect until 10 am CST this
morning...

* visibility... visibility will remain at one quarter of a mile or
less throughout much of the morning hours today.

* Impacts... driving will be hazardous due to low and changing
visibilities.

Precautionary/preparedness actions...

A dense fog advisory means visibilities will frequently be
reduced to less than one quarter mile. Be especially cautious
near intersections and Railroad crossings. Also be especially
careful if traveling along known school bus routes as buses make
frequent stops. If driving, slow down, use your low beam and fog
headlights, leave plenty of distance ahead of you. Plan on extra
travel time this morning.


Kotenberg